Time;durP1;ratioP1;P1;durP2;ratioP2;P2;SDS_P1;SDS_P2;PMS_P1;PMS_P2;Temp;Humidity;BMP_temperature;BMP_pressure;BME280_temperature;BME280_humidity;BME280_pressure;Samples;Min_cycle;Max_cycle;Signal;HPM_P1;HPM_P2
2021/08/02 00:00:06;;;;;;;0.60;0.60;;;12.50;99.90;;;;;;4992407;28;20214;-79
2021/08/02 00:02:54;;;;;;;0.50;0.50;;;12.40;99.90;;;;;;4992070;28;20230;-78
2021/08/02 00:05:21;;;;;;;0.50;0.50;;;12.40;99.90;;;;;;4976631;28;20554;-79
2021/08/02 00:07:57;;;;;;;0.50;0.50;;;12.40;99.90;;;;;;5008248;28;20220;-78
2021/08/02 00:10:32;;;;;;;0.50;0.50;;;12.40;99.90;;;;;;4973394;28;20211;-80
2021/08/02 00:13:08;;;;;;;0.82;0.82;;;12.50;99.90;;;;;;4991305;28;20238;-79
2021/08/02 00:15:35;;;;;;;0.65;0.57;;;12.60;99.90;;;;;;4993149;28;20241;-79
2021/08/02 00:18:00;;;;;;;0.50;0.50;;;12.70;99.90;;;;;;4975931;28;20603;-79
2021/08/02 00:20:31;;;;;;;0.57;0.57;;;12.70;99.90;;;;;;4973595;28;20287;-79
2021/08/02 00:23:00;;;;;;;0.50;0.50;;;12.70;99.90;;;;;;4989229;28;20230;-78
2021/08/02 00:25:27;;;;;;;0.70;0.70;;;12.70;99.90;;;;;;4976342;28;20696;-79
2021/08/02 00:27:54;;;;;;;0.50;0.50;;;12.60;99.90;;;;;;4975924;28;20208;-79
2021/08/02 00:30:20;;;;;;;0.60;0.60;;;12.60;99.90;;;;;;4961131;28;20205;-79
2021/08/02 00:32:46;;;;;;;0.50;0.50;;;12.60;99.90;;;;;;5013131;28;20203;-79
2021/08/02 00:35:12;;;;;;;0.50;0.50;;;12.60;99.90;;;;;;4978641;28;20223;-79
2021/08/02 00:37:58;;;;;;;0.50;0.50;;;12.50;99.90;;;;;;5007265;28;20208;-79
2021/08/02 00:40:56;;;;;;;0.50;0.50;;;12.50;99.90;;;;;;4973636;28;20204;-79
2021/08/02 00:43:52;;;;;;;0.50;0.50;;;12.40;99.90;;;;;;4988478;28;20227;-79
2021/08/02 00:46:26;;;;;;;0.60;0.60;;;12.30;99.90;;;;;;4973874;28;20196;-79
2021/08/02 00:49:01;;;;;;;0.50;0.50;;;12.30;99.90;;;;;;4973949;28;20231;-79
2021/08/02 00:51:28;;;;;;;0.50;0.50;;;12.30;99.90;;;;;;5008974;28;20757;-79
2021/08/02 00:53:59;;;;;;;0.50;0.50;;;12.30;99.90;;;;;;5004808;28;20250;-79
2021/08/02 00:56:28;;;;;;;0.50;0.50;;;12.30;99.90;;;;;;5023565;28;20262;-79
2021/08/02 00:58:54;;;;;;;0.50;0.50;;;12.30;99.90;;;;;;4974658;28;20204;-79
2021/08/02 01:01:20;;;;;;;0.55;0.55;;;12.30;99.90;;;;;;4989942;28;20290;-79
2021/08/02 01:03:46;;;;;;;0.60;0.60;;;12.40;99.90;;;;;;4973240;23;20688;-74
2021/08/02 01:06:15;;;;;;;0.60;0.60;;;12.40;99.90;;;;;;4968097;28;20205;-73
2021/08/02 01:08:41;;;;;;;0.57;0.57;;;12.40;99.90;;;;;;4954131;28;20209;-73
2021/08/02 01:11:10;;;;;;;0.50;0.50;;;12.40;99.90;;;;;;4954726;28;20208;-73
2021/08/02 01:13:38;;;;;;;0.50;0.50;;;12.40;99.90;;;;;;4954884;28;20205;-73
2021/08/02 01:16:06;;;;;;;0.60;0.60;;;12.40;99.90;;;;;;4954371;28;20298;-74
2021/08/02 01:18:33;;;;;;;0.57;0.57;;;12.40;99.90;;;;;;4954290;28;20243;-74
2021/08/02 01:21:06;;;;;;;0.60;0.60;;;12.50;99.90;;;;;;4953178;29;20624;-74
2021/08/02 01:23:33;;;;;;;0.57;0.57;;;12.50;99.90;;;;;;4954194;28;20584;-74
2021/08/02 01:25:59;;;;;;;0.60;0.60;;;12.50;99.90;;;;;;4985715;28;20224;-73
2021/08/02 01:28:25;;;;;;;0.60;0.60;;;12.40;99.90;;;;;;4954741;28;20667;-74
2021/08/02 01:30:53;;;;;;;0.60;0.60;;;12.40;99.90;;;;;;4953042;28;20727;-73
2021/08/02 01:33:21;;;;;;;0.60;0.60;;;12.50;99.90;;;;;;4954218;28;20205;-74
2021/08/02 01:35:47;;;;;;;0.60;0.60;;;12.50;99.90;;;;;;4953025;29;20609;-74
2021/08/02 01:38:14;;;;;;;0.70;0.70;;;12.40;99.90;;;;;;4965560;28;20283;-74
2021/08/02 01:40:40;;;;;;;0.60;0.60;;;12.50;99.90;;;;;;4965298;28;20209;-74
2021/08/02 01:43:08;;;;;;;0.60;0.60;;;12.50;99.90;;;;;;4955086;28;20268;-74
2021/08/02 01:45:46;;;;;;;0.60;0.60;;;12.50;99.90;;;;;;4954055;28;20216;-74
2021/08/02 01:48:18;;;;;;;0.60;0.60;;;12.50;99.90;;;;;;4980528;23;20303;-86
2021/08/02 01:50:56;;;;;;;0.52;0.52;;;12.50;99.90;;;;;;4973179;28;20207;-86
2021/08/02 01:54:02;;;;;;;0.60;0.60;;;12.50;99.90;;;;;;4973426;28;20196;-86
2021/08/02 01:56:37;;;;;;;0.60;0.60;;;12.50;99.90;;;;;;4985978;28;20208;-86
2021/08/02 01:59:06;;;;;;;0.60;0.60;;;12.50;99.90;;;;;;4974022;28;20207;-85
2021/08/02 02:01:34;;;;;;;0.50;0.50;;;12.50;99.90;;;;;;4970825;28;20211;-86
2021/08/02 02:04:05;;;;;;;0.50;0.50;;;12.40;99.90;;;;;;4976969;28;20204;-84
2021/08/02 02:06:37;;;;;;;0.80;0.80;;;12.40;99.90;;;;;;4985611;28;20277;-86
2021/08/02 02:09:09;;;;;;;0.60;0.60;;;12.40;99.90;;;;;;4994323;28;20214;-86
2021/08/02 02:11:40;;;;;;;0.60;0.60;;;12.40;99.90;;;;;;4968795;28;20212;-86
2021/08/02 02:14:08;;;;;;;0.60;0.60;;;12.40;99.90;;;;;;4977545;28;20671;-87
2021/08/02 02:16:37;;;;;;;0.65;0.65;;;12.40;99.90;;;;;;4978099;28;20317;-86
2021/08/02 02:19:06;;;;;;;0.70;0.70;;;12.40;99.90;;;;;;4976897;28;20200;-86
2021/08/02 02:21:33;;;;;;;0.57;0.57;;;12.40;99.90;;;;;;4987097;28;20201;-86
2021/08/02 02:24:00;;;;;;;0.50;0.50;;;12.40;99.90;;;;;;4979025;28;20290;-86
2021/08/02 02:26:29;;;;;;;0.57;0.57;;;12.40;99.90;;;;;;5006611;28;20259;-86
2021/08/02 02:29:00;;;;;;;0.70;0.70;;;12.40;99.90;;;;;;4977155;28;20211;-85
2021/08/02 02:31:27;;;;;;;0.70;0.70;;;12.30;99.90;;;;;;4974800;28;20210;-87
2021/08/02 02:34:00;;;;;;;0.60;0.60;;;12.30;99.90;;;;;;4977043;28;20567;-86
2021/08/02 02:36:28;;;;;;;0.60;0.60;;;12.30;99.90;;;;;;4991936;28;20266;-86
2021/08/02 02:38:54;;;;;;;0.60;0.60;;;12.30;99.90;;;;;;4977003;28;20200;-86
2021/08/02 02:41:22;;;;;;;0.50;0.50;;;12.30;99.90;;;;;;4978569;28;20204;-84
2021/08/02 02:43:49;;;;;;;0.50;0.50;;;12.30;99.90;;;;;;4990497;28;20204;-86
2021/08/02 02:46:19;;;;;;;0.55;0.55;;;12.30;99.90;;;;;;4976633;28;20262;-85
2021/08/02 02:48:46;;;;;;;0.60;0.60;;;12.30;99.90;;;;;;4976617;28;20245;-86
2021/08/02 02:51:13;;;;;;;0.50;0.50;;;12.30;99.90;;;;;;4992630;28;20266;-86
2021/08/02 02:53:41;;;;;;;0.55;0.55;;;12.20;99.90;;;;;;4992873;28;20234;-85
2021/08/02 02:56:09;;;;;;;0.60;0.60;;;12.20;99.90;;;;;;4978014;28;20291;-86
2021/08/02 02:58:39;;;;;;;0.60;0.60;;;12.30;99.90;;;;;;4976392;28;20217;-85
2021/08/02 03:01:06;;;;;;;0.52;0.52;;;12.20;99.90;;;;;;4976602;28;20335;-85
2021/08/02 03:03:36;;;;;;;0.50;0.50;;;12.20;99.90;;;;;;4977912;28;20295;-86
2021/08/02 03:06:03;;;;;;;0.50;0.50;;;12.20;99.90;;;;;;4962361;28;20280;-86
2021/08/02 03:08:29;;;;;;;0.57;0.57;;;12.10;99.90;;;;;;4988205;28;20211;-86
2021/08/02 03:10:56;;;;;;;0.50;0.50;;;12.10;99.90;;;;;;4975606;28;20328;-87
2021/08/02 03:13:23;;;;;;;0.50;0.50;;;12.10;99.90;;;;;;4979793;28;20236;-86
2021/08/02 03:15:49;;;;;;;0.60;0.60;;;12.10;99.90;;;;;;4991918;28;20216;-86
2021/08/02 03:18:14;;;;;;;0.50;0.50;;;12.10;99.90;;;;;;4976731;28;20287;-85
2021/08/02 03:20:41;;;;;;;0.50;0.50;;;12.10;99.90;;;;;;4976409;28;20258;-86
2021/08/02 03:23:10;;;;;;;0.50;0.50;;;12.10;99.90;;;;;;4976820;28;20203;-86
2021/08/02 03:25:40;;;;;;;0.60;0.60;;;12.10;99.90;;;;;;4975870;28;20267;-87
2021/08/02 03:28:22;;;;;;;0.60;0.60;;;12.10;99.90;;;;;;4978025;28;20701;-86
2021/08/02 03:30:52;;;;;;;0.60;0.60;;;12.10;99.90;;;;;;4975185;28;20204;-86
2021/08/02 03:33:25;;;;;;;0.60;0.60;;;12.10;99.90;;;;;;4988673;28;20675;-86
2021/08/02 03:35:54;;;;;;;0.60;0.60;;;12.10;99.90;;;;;;4988457;28;20212;-86
2021/08/02 03:38:20;;;;;;;0.60;0.60;;;12.20;99.90;;;;;;4975867;28;20599;-84
2021/08/02 03:40:47;;;;;;;0.50;0.50;;;12.20;99.90;;;;;;4976891;28;20303;-87
2021/08/02 03:43:16;;;;;;;0.90;0.82;;;12.20;99.90;;;;;;4991088;28;20679;-87
2021/08/02 03:45:42;;;;;;;0.50;0.50;;;12.20;99.90;;;;;;4974817;28;20290;-86
2021/08/02 03:48:10;;;;;;;0.50;0.50;;;12.20;99.90;;;;;;4990066;28;20204;-86
2021/08/02 03:50:37;;;;;;;0.52;0.52;;;12.30;99.90;;;;;;4973422;28;20221;-86
2021/08/02 03:53:03;;;;;;;0.60;0.60;;;12.30;99.90;;;;;;4963372;28;20621;-86
2021/08/02 03:55:32;;;;;;;0.60;0.60;;;12.30;99.90;;;;;;4974857;28;20290;-86
2021/08/02 03:57:58;;;;;;;0.50;0.50;;;12.30;99.90;;;;;;4977006;28;20555;-86
2021/08/02 04:00:24;;;;;;;0.50;0.50;;;12.30;99.90;;;;;;4972095;28;20205;-86
2021/08/02 04:02:50;;;;;;;0.60;0.60;;;12.30;99.90;;;;;;4960678;28;20205;-86
2021/08/02 04:05:19;;;;;;;0.50;0.50;;;12.30;99.90;;;;;;4976690;28;20220;-87
2021/08/02 04:07:46;;;;;;;0.50;0.50;;;12.30;99.90;;;;;;4975662;28;20339;-86
2021/08/02 04:10:13;;;;;;;0.50;0.50;;;12.30;99.90;;;;;;4972394;28;20213;-87
2021/08/02 04:12:39;;;;;;;0.60;0.60;;;12.30;99.90;;;;;;4974467;28;20211;-86
2021/08/02 04:15:08;;;;;;;0.55;0.55;;;12.30;99.90;;;;;;4991005;28;20301;-87
2021/08/02 04:17:33;;;;;;;0.60;0.60;;;12.30;99.90;;;;;;4972037;28;20295;-85
2021/08/02 04:19:59;;;;;;;0.50;0.50;;;12.30;99.90;;;;;;4975674;28;20287;-87
2021/08/02 04:22:25;;;;;;;0.60;0.60;;;12.30;99.90;;;;;;4977775;28;20617;-86
2021/08/02 04:24:50;;;;;;;0.50;0.50;;;12.30;99.90;;;;;;4974736;28;20212;-86
2021/08/02 04:27:16;;;;;;;0.55;0.55;;;12.40;99.90;;;;;;4976319;28;20208;-85
2021/08/02 04:29:42;;;;;;;0.50;0.50;;;12.40;99.90;;;;;;4975382;28;20216;-86
2021/08/02 04:32:07;;;;;;;0.52;0.52;;;12.30;99.90;;;;;;4989388;28;20197;-85
2021/08/02 04:34:33;;;;;;;0.50;0.50;;;12.40;99.90;;;;;;4974820;28;20622;-86
2021/08/02 04:36:59;;;;;;;0.50;0.50;;;12.40;99.90;;;;;;4974899;28;20232;-86
2021/08/02 04:39:24;;;;;;;0.60;0.60;;;12.40;99.90;;;;;;4973643;28;20568;-86
2021/08/02 04:41:50;;;;;;;0.50;0.50;;;12.40;99.90;;;;;;4975803;28;20230;-86
2021/08/02 04:44:16;;;;;;;0.55;0.55;;;12.40;99.90;;;;;;4981443;28;20227;-85
2021/08/02 04:46:42;;;;;;;0.60;0.60;;;12.40;99.90;;;;;;4983503;28;20211;-86
2021/08/02 04:49:07;;;;;;;0.50;0.50;;;12.40;99.90;;;;;;4984053;28;20227;-86
2021/08/02 04:51:33;;;;;;;6.85;2.25;;;12.40;99.90;;;;;;4972234;28;20208;-86
2021/08/02 04:53:59;;;;;;;0.57;0.57;;;12.40;99.90;;;;;;4975619;28;20291;-86
2021/08/02 04:56:24;;;;;;;0.50;0.50;;;12.30;99.90;;;;;;4979648;28;20219;-86
2021/08/02 04:58:50;;;;;;;0.50;0.50;;;12.40;99.90;;;;;;4986799;28;20196;-86
2021/08/02 05:01:16;;;;;;;0.60;0.60;;;12.30;99.90;;;;;;4979865;28;20199;-85
2021/08/02 05:03:41;;;;;;;0.60;0.60;;;12.30;99.90;;;;;;5001291;28;20204;-86
2021/08/02 05:06:07;;;;;;;0.50;0.50;;;12.30;99.90;;;;;;4986290;28;20288;-86
2021/08/02 05:08:33;;;;;;;0.60;0.60;;;12.30;99.90;;;;;;4972602;28;20214;-86
2021/08/02 05:10:58;;;;;;;0.60;0.60;;;12.30;99.90;;;;;;4974593;28;20199;-85
2021/08/02 05:13:24;;;;;;;0.50;0.50;;;12.20;99.90;;;;;;4970772;28;20299;-85
2021/08/02 05:15:50;;;;;;;0.50;0.50;;;12.20;99.90;;;;;;4958901;28;20208;-86
2021/08/02 05:18:16;;;;;;;0.60;0.60;;;12.20;99.90;;;;;;4975336;28;20705;-86
2021/08/02 05:20:42;;;;;;;0.50;0.50;;;12.10;99.90;;;;;;4989973;28;20208;-86
2021/08/02 05:23:08;;;;;;;0.60;0.60;;;12.20;99.90;;;;;;4974374;28;20235;-86
2021/08/02 05:25:34;;;;;;;1.08;1.08;;;12.20;99.90;;;;;;4972818;28;20310;-85
2021/08/02 05:28:00;;;;;;;0.60;0.60;;;12.20;99.90;;;;;;4974873;28;20216;-85
2021/08/02 05:30:26;;;;;;;0.50;0.50;;;12.20;99.90;;;;;;4991441;28;20224;-86
2021/08/02 05:32:52;;;;;;;0.60;0.60;;;12.10;99.90;;;;;;4989568;28;20256;-85
2021/08/02 05:35:18;;;;;;;0.60;0.60;;;12.10;99.90;;;;;;4990381;28;20216;-86
2021/08/02 05:37:44;;;;;;;0.57;0.57;;;12.10;99.90;;;;;;4973656;28;20295;-86
2021/08/02 05:40:10;;;;;;;0.50;0.50;;;12.10;99.90;;;;;;4973801;28;20208;-87
2021/08/02 05:42:36;;;;;;;0.70;0.70;;;12.10;99.90;;;;;;4975839;28;20205;-86
2021/08/02 05:45:06;;;;;;;0.50;0.50;;;12.10;99.90;;;;;;4973916;28;20671;-84
2021/08/02 05:47:32;;;;;;;0.60;0.60;;;12.10;99.90;;;;;;4988719;28;20212;-82
2021/08/02 05:49:58;;;;;;;0.60;0.60;;;12.10;99.90;;;;;;4975024;28;20228;-81
2021/08/02 05:52:24;;;;;;;0.60;0.60;;;12.00;99.90;;;;;;4973520;28;20583;-82
2021/08/02 05:54:50;;;;;;;0.50;0.50;;;12.00;99.90;;;;;;4973581;28;20713;-82
2021/08/02 05:57:22;;;;;;;0.55;0.55;;;12.00;99.90;;;;;;4974087;28;20208;-81
2021/08/02 05:59:48;;;;;;;0.60;0.60;;;11.90;99.90;;;;;;4972680;28;20230;-81
2021/08/02 06:02:14;;;;;;;0.60;0.60;;;11.90;99.90;;;;;;4974841;28;20205;-81
2021/08/02 06:04:40;;;;;;;0.60;0.60;;;11.90;99.90;;;;;;4974344;28;20721;-82
2021/08/02 06:07:06;;;;;;;0.60;0.60;;;11.90;99.90;;;;;;4972052;28;20208;-82
2021/08/02 06:09:32;;;;;;;0.50;0.50;;;11.80;99.90;;;;;;4974505;28;20703;-82
2021/08/02 06:11:57;;;;;;;0.60;0.60;;;11.80;99.90;;;;;;4971377;28;20211;-82
2021/08/02 06:14:23;;;;;;;0.52;0.52;;;11.70;99.90;;;;;;4985013;28;20287;-83
2021/08/02 06:16:50;;;;;;;0.55;0.55;;;11.70;99.90;;;;;;4989976;28;20705;-82
2021/08/02 06:19:16;;;;;;;0.57;0.57;;;11.60;99.90;;;;;;4973457;28;20591;-84
2021/08/02 06:21:41;;;;;;;1.05;0.80;;;11.50;99.90;;;;;;4973245;28;20203;-82
2021/08/02 06:24:08;;;;;;;0.60;0.60;;;11.40;99.90;;;;;;4973619;28;20679;-81
2021/08/02 06:26:33;;;;;;;0.60;0.60;;;11.30;99.90;;;;;;4973944;28;20200;-84
2021/08/02 06:28:59;;;;;;;0.50;0.50;;;11.20;99.90;;;;;;4990254;28;20342;-83
2021/08/02 06:31:25;;;;;;;0.60;0.60;;;11.20;99.90;;;;;;4990872;28;20204;-84
2021/08/02 06:33:51;;;;;;;0.90;0.90;;;11.20;99.90;;;;;;4976260;28;20216;-84
2021/08/02 06:36:20;;;;;;;0.60;0.60;;;11.20;99.90;;;;;;4974675;28;20216;-85
2021/08/02 06:38:49;;;;;;;0.55;0.55;;;11.20;99.90;;;;;;4990122;28;20265;-85
2021/08/02 06:41:15;;;;;;;0.50;0.50;;;11.30;99.90;;;;;;4989333;28;20663;-88
2021/08/02 06:43:44;;;;;;;0.50;0.50;;;11.30;99.90;;;;;;4970798;28;20255;-83
2021/08/02 06:46:09;;;;;;;0.60;0.60;;;11.30;99.90;;;;;;4988518;28;20211;-85
2021/08/02 06:48:40;;;;;;;0.50;0.50;;;11.30;99.90;;;;;;4974494;28;20240;-89
2021/08/02 06:51:07;;;;;;;0.70;0.70;;;11.30;99.90;;;;;;4990160;28;20211;-84
2021/08/02 06:53:33;;;;;;;0.60;0.60;;;11.30;99.90;;;;;;4978943;28;20219;-83
2021/08/02 06:55:59;;;;;;;0.60;0.60;;;11.30;99.90;;;;;;4988754;28;20574;-84
2021/08/02 06:58:24;;;;;;;0.60;0.60;;;11.30;99.90;;;;;;4983782;28;20211;-84
2021/08/02 07:00:51;;;;;;;0.70;0.70;;;11.30;99.90;;;;;;4976696;28;20208;-84
2021/08/02 07:03:16;;;;;;;0.60;0.60;;;11.30;99.90;;;;;;4977903;28;20235;-85
2021/08/02 07:05:42;;;;;;;0.60;0.60;;;11.30;99.90;;;;;;4976262;28;20235;-84
2021/08/02 07:08:08;;;;;;;0.60;0.60;;;11.30;99.90;;;;;;4991768;28;20196;-84
2021/08/02 07:10:33;;;;;;;0.60;0.60;;;11.30;99.90;;;;;;4992319;28;20758;-84
2021/08/02 07:12:59;;;;;;;0.60;0.60;;;11.30;99.90;;;;;;4976668;28;20231;-84
2021/08/02 07:15:25;;;;;;;0.70;0.70;;;11.40;99.90;;;;;;4975340;28;20299;-84
2021/08/02 07:17:50;;;;;;;0.60;0.60;;;11.50;99.90;;;;;;4992277;28;20207;-84
2021/08/02 07:20:16;;;;;;;0.60;0.60;;;11.50;99.90;;;;;;4977509;28;20199;-83
2021/08/02 07:22:42;;;;;;;0.60;0.60;;;11.50;99.90;;;;;;4974792;28;20201;-84
2021/08/02 07:25:08;;;;;;;0.60;0.60;;;11.50;99.90;;;;;;4975827;28;20255;-82
2021/08/02 07:27:33;;;;;;;0.88;0.77;;;11.50;99.90;;;;;;4976520;28;20192;-83
2021/08/02 07:29:59;;;;;;;0.50;0.50;;;11.50;99.90;;;;;;4975042;28;20219;-83
2021/08/02 07:32:25;;;;;;;0.52;0.52;;;11.50;99.90;;;;;;4974573;28;20640;-83
2021/08/02 07:34:50;;;;;;;0.60;0.60;;;11.50;99.90;;;;;;4991023;28;20222;-83
2021/08/02 07:37:16;;;;;;;0.60;0.60;;;11.50;99.90;;;;;;4977367;28;20224;-84
2021/08/02 07:39:42;;;;;;;0.60;0.60;;;11.50;99.90;;;;;;4987939;28;20257;-84
2021/08/02 07:42:08;;;;;;;0.65;0.65;;;11.50;99.90;;;;;;4980570;28;20349;-83
2021/08/02 07:44:33;;;;;;;0.70;0.70;;;11.50;99.90;;;;;;4990786;28;20235;-83
2021/08/02 07:47:00;;;;;;;0.60;0.60;;;11.60;99.90;;;;;;4975811;28;20286;-84
2021/08/02 07:49:26;;;;;;;0.68;0.68;;;11.70;99.90;;;;;;4977808;28;20236;-83
2021/08/02 07:51:51;;;;;;;0.60;0.60;;;11.90;99.90;;;;;;4975748;28;20209;-83
2021/08/02 07:54:17;;;;;;;1.35;1.17;;;11.90;99.90;;;;;;4975912;28;20537;-84
2021/08/02 07:56:43;;;;;;;0.60;0.60;;;12.10;99.90;;;;;;4981320;28;20666;-85
2021/08/02 07:59:08;;;;;;;0.50;0.50;;;12.10;99.90;;;;;;4985766;28;20211;-84
2021/08/02 08:01:34;;;;;;;0.60;0.60;;;12.20;99.90;;;;;;4972668;28;20208;-80
2021/08/02 08:04:00;;;;;;;0.65;0.65;;;12.30;99.90;;;;;;4991847;28;20310;-85
2021/08/02 08:06:25;;;;;;;1.25;1.15;;;12.40;99.90;;;;;;4971995;28;20205;-84
2021/08/02 08:08:51;;;;;;;0.60;0.60;;;12.50;99.90;;;;;;4975474;28;20207;-84
2021/08/02 08:11:17;;;;;;;0.50;0.50;;;12.60;99.90;;;;;;4974740;28;20340;-84
2021/08/02 08:13:43;;;;;;;0.63;0.63;;;12.70;99.90;;;;;;4976842;28;21538;-84
2021/08/02 08:16:08;;;;;;;0.60;0.60;;;12.80;99.90;;;;;;4973999;28;20559;-84
2021/08/02 08:18:34;;;;;;;0.88;0.88;;;13.00;99.90;;;;;;4973975;28;20219;-85
2021/08/02 08:21:00;;;;;;;0.50;0.50;;;13.20;99.90;;;;;;5003759;28;20227;-84
2021/08/02 08:23:31;;;;;;;0.60;0.60;;;13.30;99.90;;;;;;4974540;28;20310;-85
2021/08/02 08:26:01;;;;;;;0.50;0.50;;;13.50;99.90;;;;;;4972891;28;20216;-85
2021/08/02 08:28:27;;;;;;;0.50;0.50;;;13.60;99.90;;;;;;4975967;28;20678;-85
2021/08/02 08:30:54;;;;;;;0.50;0.50;;;13.60;99.90;;;;;;4991437;28;20291;-85
2021/08/02 08:33:19;;;;;;;0.50;0.50;;;13.50;99.90;;;;;;4991140;28;20690;-84
2021/08/02 08:35:45;;;;;;;0.60;0.60;;;13.50;99.90;;;;;;5002251;28;20235;-80
2021/08/02 08:38:11;;;;;;;0.50;0.50;;;13.30;99.90;;;;;;4979840;28;20204;-85
2021/08/02 08:40:38;;;;;;;0.50;0.50;;;13.30;99.90;;;;;;4982761;28;20699;-84
2021/08/02 08:43:05;;;;;;;0.50;0.50;;;13.30;99.90;;;;;;4973483;28;20541;-85
2021/08/02 08:45:30;;;;;;;0.50;0.50;;;13.20;99.90;;;;;;4974453;28;20649;-85
2021/08/02 08:47:56;;;;;;;0.60;0.60;;;13.20;99.90;;;;;;4990692;28;20294;-85
2021/08/02 08:50:23;;;;;;;0.63;0.63;;;13.00;99.90;;;;;;4974445;28;20545;-84
2021/08/02 08:52:56;;;;;;;0.50;0.50;;;12.90;99.90;;;;;;4972588;28;20280;-85
2021/08/02 08:55:22;;;;;;;0.60;0.60;;;12.80;99.90;;;;;;4964200;28;20242;-85
2021/08/02 08:57:49;;;;;;;0.50;0.50;;;12.70;99.90;;;;;;4973975;28;20679;-85
2021/08/02 09:00:23;;;;;;;0.50;0.50;;;12.70;99.90;;;;;;4974256;28;20219;-85
2021/08/02 09:02:51;;;;;;;0.40;0.40;;;12.70;99.90;;;;;;4973338;28;20206;-85
2021/08/02 09:05:17;;;;;;;0.60;0.60;;;12.70;99.90;;;;;;4985968;28;20299;-84
2021/08/02 09:07:44;;;;;;;0.60;0.60;;;12.70;99.90;;;;;;4972306;28;20221;-85
2021/08/02 09:10:16;;;;;;;0.50;0.50;;;12.70;99.90;;;;;;4974052;28;20662;-85
2021/08/02 09:12:56;;;;;;;0.60;0.60;;;12.70;99.90;;;;;;4972386;28;20270;-84
2021/08/02 09:15:43;;;;;;;0.50;0.50;;;12.80;99.90;;;;;;4988809;28;20212;-84
2021/08/02 09:18:14;;;;;;;0.50;0.50;;;12.90;99.90;;;;;;4986597;28;20247;-85
2021/08/02 09:20:40;;;;;;;0.50;0.50;;;12.80;99.90;;;;;;4971414;28;20667;-84
2021/08/02 09:23:14;;;;;;;0.52;0.52;;;12.90;99.90;;;;;;4976198;28;20192;-85
2021/08/02 09:25:51;;;;;;;0.50;0.50;;;13.00;99.90;;;;;;4975050;28;20212;-85
2021/08/02 09:28:21;;;;;;;0.60;0.60;;;12.90;99.90;;;;;;4975156;28;20203;-85
2021/08/02 09:30:55;;;;;;;0.50;0.50;;;12.90;99.90;;;;;;4973786;28;20215;-85
2021/08/02 09:33:21;;;;;;;0.50;0.50;;;12.90;99.90;;;;;;4973929;28;20235;-84
2021/08/02 09:35:49;;;;;;;0.50;0.50;;;12.90;99.90;;;;;;4972810;28;20230;-84
2021/08/02 09:38:16;;;;;;;0.50;0.50;;;12.90;99.90;;;;;;4975372;28;20204;-85
2021/08/02 09:40:53;;;;;;;0.50;0.50;;;12.90;99.90;;;;;;4974099;28;20192;-84
2021/08/02 09:43:21;;;;;;;0.50;0.50;;;13.00;99.90;;;;;;4988981;28;20203;-85
2021/08/02 09:45:55;;;;;;;0.50;0.50;;;13.20;99.90;;;;;;4988902;28;20208;-84
2021/08/02 09:48:32;;;;;;;0.57;0.57;;;13.30;99.90;;;;;;4973291;28;20238;-84
2021/08/02 09:51:23;;;;;;;0.50;0.50;;;13.40;99.90;;;;;;4972458;28;20215;-84
2021/08/02 09:53:50;;;;;;;0.82;0.82;;;13.50;99.90;;;;;;4973464;28;20655;-84
2021/08/02 09:56:18;;;;;;;0.50;0.50;;;13.70;99.90;;;;;;4972444;28;20298;-85
2021/08/02 09:58:45;;;;;;;0.50;0.50;;;13.70;99.90;;;;;;4969764;28;20231;-84
2021/08/02 10:01:16;;;;;;;0.50;0.50;;;13.90;99.90;;;;;;4959391;28;20203;-84
2021/08/02 10:03:42;;;;;;;0.50;0.50;;;13.90;99.90;;;;;;4973270;28;20207;-85
2021/08/02 10:06:10;;;;;;;0.50;0.50;;;14.10;99.90;;;;;;4972932;28;20701;-84
2021/08/02 10:08:36;;;;;;;0.50;0.50;;;14.30;99.90;;;;;;4974783;28;20208;-84
2021/08/02 10:11:06;;;;;;;0.40;0.40;;;14.10;99.90;;;;;;4973870;28;20204;-84
2021/08/02 10:13:35;;;;;;;0.50;0.50;;;14.10;99.90;;;;;;4982784;28;20291;-83
2021/08/02 10:16:05;;;;;;;0.50;0.50;;;13.90;99.90;;;;;;4971303;28;20221;-84
2021/08/02 10:18:32;;;;;;;0.45;0.45;;;13.90;99.90;;;;;;4974781;28;20196;-84
2021/08/02 10:21:10;;;;;;;0.50;0.50;;;14.00;99.90;;;;;;4955496;28;20578;-84
2021/08/02 10:23:38;;;;;;;0.40;0.40;;;14.10;99.90;;;;;;4958405;28;20200;-85
2021/08/02 10:26:04;;;;;;;0.40;0.40;;;14.20;99.90;;;;;;4977428;28;20204;-85
2021/08/02 10:28:30;;;;;;;0.50;0.50;;;14.40;99.90;;;;;;4992021;28;20553;-85
2021/08/02 10:31:03;;;;;;;0.50;0.50;;;14.40;99.90;;;;;;4992478;28;20212;-84
2021/08/02 10:33:36;;;;;;;0.50;0.50;;;14.40;99.90;;;;;;4992431;28;20237;-85
2021/08/02 10:36:17;;;;;;;0.50;0.50;;;14.60;99.90;;;;;;4976421;28;20226;-85
2021/08/02 10:38:48;;;;;;;0.50;0.50;;;14.70;99.90;;;;;;4976200;28;20246;-84
2021/08/02 10:41:29;;;;;;;0.60;0.60;;;14.90;99.90;;;;;;4975765;28;20559;-84
2021/08/02 10:43:56;;;;;;;0.47;0.45;;;15.10;99.90;;;;;;4975894;28;20204;-84
2021/08/02 10:46:26;;;;;;;0.50;0.50;;;15.20;99.90;;;;;;4976700;28;20203;-85
2021/08/02 10:48:55;;;;;;;0.40;0.40;;;15.10;99.90;;;;;;4976631;28;20291;-84
2021/08/02 10:51:23;;;;;;;0.40;0.40;;;15.30;99.90;;;;;;4992070;28;20212;-84
2021/08/02 10:54:00;;;;;;;0.50;0.50;;;15.60;99.90;;;;;;4977072;28;20208;-84
2021/08/02 10:56:31;;;;;;;0.40;0.40;;;15.60;99.90;;;;;;4988792;28;20216;-83
2021/08/02 10:58:57;;;;;;;0.45;0.45;;;15.70;99.90;;;;;;4974698;28;20196;-84
2021/08/02 11:01:26;;;;;;;0.40;0.40;;;15.60;99.90;;;;;;4975944;28;20208;-85
2021/08/02 11:03:56;;;;;;;0.40;0.40;;;15.60;99.90;;;;;;4976571;28;20545;-84
2021/08/02 11:06:22;;;;;;;0.40;0.40;;;15.80;99.90;;;;;;4976359;28;20208;-84
2021/08/02 11:08:49;;;;;;;0.40;0.40;;;15.70;99.90;;;;;;4981149;28;20258;-85
2021/08/02 11:11:20;;;;;;;0.50;0.50;;;15.60;99.90;;;;;;4976993;28;20286;-85
2021/08/02 11:13:46;;;;;;;0.40;0.40;;;15.80;99.90;;;;;;4976482;28;20568;-84
2021/08/02 11:16:12;;;;;;;0.50;0.50;;;15.90;99.90;;;;;;4975403;28;20311;-85
2021/08/02 11:18:43;;;;;;;0.40;0.40;;;16.00;99.90;;;;;;4975090;28;20592;-85
2021/08/02 11:21:19;;;;;;;0.65;0.65;;;16.30;99.90;;;;;;4977819;28;20311;-84
2021/08/02 11:23:44;;;;;;;0.40;0.40;;;16.60;99.90;;;;;;4977640;28;20565;-84
2021/08/02 11:26:12;;;;;;;0.40;0.40;;;17.20;99.90;;;;;;4976520;28;20212;-84
2021/08/02 11:28:41;;;;;;;0.30;0.30;;;17.50;99.90;;;;;;4976008;28;20207;-84
2021/08/02 11:31:11;;;;;;;0.30;0.30;;;17.90;99.90;;;;;;4977337;28;20706;-84
2021/08/02 11:33:38;;;;;;;0.50;0.50;;;18.20;99.90;;;;;;4974396;28;20293;-84
2021/08/02 11:36:05;;;;;;;0.20;0.20;;;18.50;99.90;;;;;;4975659;28;20212;-84
2021/08/02 11:38:38;;;;;;;0.40;0.40;;;18.50;99.90;;;;;;4975997;28;20702;-85
2021/08/02 11:41:05;;;;;;;0.40;0.40;;;18.60;99.90;;;;;;4977255;28;20207;-84
2021/08/02 11:43:42;;;;;;;0.30;0.30;;;18.60;99.90;;;;;;4975781;28;20231;-84
2021/08/02 11:46:08;;;;;;;0.30;0.30;;;18.50;99.90;;;;;;4976025;28;20732;-85
2021/08/02 11:48:34;;;;;;;0.32;0.32;;;18.00;99.90;;;;;;4976637;28;20231;-84
2021/08/02 11:51:00;;;;;;;0.30;0.30;;;18.30;99.90;;;;;;4974501;28;20215;-85
2021/08/02 11:53:34;;;;;;;0.30;0.30;;;18.50;99.90;;;;;;4976733;28;20618;-83
2021/08/02 11:55:59;;;;;;;0.40;0.40;;;19.00;99.90;;;;;;4974393;28;20224;-84
2021/08/02 11:58:25;;;;;;;0.30;0.30;;;19.70;99.90;;;;;;4977198;28;20211;-83
2021/08/02 12:01:01;;;;;;;0.30;0.30;;;19.70;99.90;;;;;;4992688;28;20193;-84
2021/08/02 12:03:26;;;;;;;0.30;0.30;;;19.50;99.90;;;;;;4976404;28;20203;-85
2021/08/02 12:06:01;;;;;;;0.50;0.50;;;18.80;99.90;;;;;;4981332;28;20207;-84
2021/08/02 12:08:28;;;;;;;0.63;0.40;;;18.40;99.90;;;;;;4974001;28;20598;-84
2021/08/02 12:11:01;;;;;;;0.47;0.47;;;18.90;99.90;;;;;;4976644;28;20207;-85
2021/08/02 12:13:44;;;;;;;0.22;0.22;;;19.50;99.90;;;;;;4973944;28;20216;-85
2021/08/02 12:16:12;;;;;;;0.30;0.30;;;19.90;99.90;;;;;;4975900;28;20216;-85
2021/08/02 12:18:38;;;;;;;0.30;0.30;;;20.20;99.90;;;;;;4975278;28;20236;-85
2021/08/02 12:21:22;;;;;;;0.20;0.20;;;19.80;99.90;;;;;;4975209;28;20234;-85
2021/08/02 12:23:48;;;;;;;0.20;0.20;;;20.00;99.90;;;;;;4975029;28;20200;-85
2021/08/02 12:26:21;;;;;;;0.30;0.30;;;20.40;99.90;;;;;;4974018;28;20208;-86
2021/08/02 12:28:48;;;;;;;0.20;0.20;;;20.60;99.90;;;;;;4975238;28;20229;-85
2021/08/02 12:31:21;;;;;;;0.20;0.20;;;20.60;99.90;;;;;;4974835;28;20211;-85
2021/08/02 12:33:49;;;;;;;0.30;0.30;;;20.20;99.90;;;;;;4974348;28;20259;-84
2021/08/02 12:36:16;;;;;;;0.20;0.20;;;20.10;99.90;;;;;;4972001;28;20235;-84
2021/08/02 12:38:47;;;;;;;0.28;0.28;;;20.30;99.90;;;;;;4973167;28;20680;-84
2021/08/02 12:41:14;;;;;;;0.30;0.30;;;20.40;99.90;;;;;;4975108;28;20595;-84
2021/08/02 12:43:42;;;;;;;0.20;0.20;;;20.00;99.90;;;;;;4990337;28;20211;-83
2021/08/02 12:46:09;;;;;;;0.20;0.20;;;19.80;99.90;;;;;;4973281;28;20231;-85
2021/08/02 12:48:35;;;;;;;0.28;0.28;;;19.80;99.90;;;;;;4989586;28;20224;-84
2021/08/02 12:51:00;;;;;;;0.30;0.30;;;20.40;99.90;;;;;;4973713;28;20676;-83
2021/08/02 12:53:26;;;;;;;0.20;0.20;;;20.60;99.90;;;;;;4974672;28;20215;-84